sensor_id;sensor_type;location;lat;lon;timestamp;P1;durP1;ratioP1;P2;durP2;ratioP2
55300;SDS011;58302;51.446;-2.000;2023-03-12T00:00:50;22.83;;;8.23;;
55300;SDS011;58302;51.446;-2.000;2023-03-12T00:03:16;17.50;;;7.40;;
55300;SDS011;58302;51.446;-2.000;2023-03-12T00:05:43;25.48;;;7.72;;
55300;SDS011;58302;51.446;-2.000;2023-03-12T00:08:10;26.52;;;8.23;;
55300;SDS011;58302;51.446;-2.000;2023-03-12T00:10:38;26.63;;;8.02;;
55300;SDS011;58302;51.446;-2.000;2023-03-12T00:13:05;28.10;;;8.73;;
55300;SDS011;58302;51.446;-2.000;2023-03-12T00:15:34;35.53;;;9.30;;
55300;SDS011;58302;51.446;-2.000;2023-03-12T00:18:01;33.25;;;8.93;;
55300;SDS011;58302;51.446;-2.000;2023-03-12T00:20:27;35.55;;;10.05;;
55300;SDS011;58302;51.446;-2.000;2023-03-12T00:22:53;30.90;;;9.07;;
55300;SDS011;58302;51.446;-2.000;2023-03-12T00:25:19;39.10;;;9.63;;
55300;SDS011;58302;51.446;-2.000;2023-03-12T00:27:45;45.67;;;10.20;;
55300;SDS011;58302;51.446;-2.000;2023-03-12T00:30:11;37.42;;;9.60;;
55300;SDS011;58302;51.446;-2.000;2023-03-12T00:32:37;37.70;;;9.75;;
55300;SDS011;58302;51.446;-2.000;2023-03-12T00:35:04;46.42;;;10.57;;
55300;SDS011;58302;51.446;-2.000;2023-03-12T00:37:31;45.70;;;10.73;;
55300;SDS011;58302;51.446;-2.000;2023-03-12T00:39:58;44.60;;;9.05;;
55300;SDS011;58302;51.446;-2.000;2023-03-12T00:42:26;38.85;;;11.68;;
55300;SDS011;58302;51.446;-2.000;2023-03-12T00:44:52;38.00;;;9.80;;
55300;SDS011;58302;51.446;-2.000;2023-03-12T00:47:18;45.33;;;12.10;;
55300;SDS011;58302;51.446;-2.000;2023-03-12T00:49:44;36.08;;;11.07;;
55300;SDS011;58302;51.446;-2.000;2023-03-12T00:52:10;49.00;;;11.73;;
55300;SDS011;58302;51.446;-2.000;2023-03-12T00:54:36;43.95;;;11.02;;
55300;SDS011;58302;51.446;-2.000;2023-03-12T00:57:03;46.95;;;11.52;;
55300;SDS011;58302;51.446;-2.000;2023-03-12T00:59:29;32.15;;;10.88;;
55300;SDS011;58302;51.446;-2.000;2023-03-12T01:01:55;38.78;;;12.27;;
55300;SDS011;58302;51.446;-2.000;2023-03-12T01:04:21;30.48;;;13.07;;
55300;SDS011;58302;51.446;-2.000;2023-03-12T01:06:47;43.60;;;12.90;;
55300;SDS011;58302;51.446;-2.000;2023-03-12T01:09:13;50.40;;;13.48;;
55300;SDS011;58302;51.446;-2.000;2023-03-12T01:11:39;49.08;;;12.57;;
55300;SDS011;58302;51.446;-2.000;2023-03-12T01:14:06;35.78;;;12.80;;
55300;SDS011;58302;51.446;-2.000;2023-03-12T01:16:33;53.15;;;13.93;;
55300;SDS011;58302;51.446;-2.000;2023-03-12T01:18:59;54.42;;;11.70;;
55300;SDS011;58302;51.446;-2.000;2023-03-12T01:21:27;42.95;;;11.07;;
55300;SDS011;58302;51.446;-2.000;2023-03-12T01:23:54;41.83;;;11.23;;
55300;SDS011;58302;51.446;-2.000;2023-03-12T01:26:21;39.65;;;12.68;;
55300;SDS011;58302;51.446;-2.000;2023-03-12T01:28:47;57.45;;;13.23;;
55300;SDS011;58302;51.446;-2.000;2023-03-12T01:31:14;38.80;;;11.00;;
55300;SDS011;58302;51.446;-2.000;2023-03-12T01:33:43;40.25;;;9.90;;
55300;SDS011;58302;51.446;-2.000;2023-03-12T01:36:16;36.03;;;10.98;;
55300;SDS011;58302;51.446;-2.000;2023-03-12T01:38:44;44.35;;;12.55;;
55300;SDS011;58302;51.446;-2.000;2023-03-12T01:41:10;43.78;;;13.13;;
55300;SDS011;58302;51.446;-2.000;2023-03-12T01:43:37;47.90;;;11.38;;
55300;SDS011;58302;51.446;-2.000;2023-03-12T01:46:22;44.78;;;16.15;;
55300;SDS011;58302;51.446;-2.000;2023-03-12T01:54:11;44.22;;;11.57;;
55300;SDS011;58302;51.446;-2.000;2023-03-12T01:56:41;49.58;;;14.23;;
55300;SDS011;58302;51.446;-2.000;2023-03-12T02:01:55;42.58;;;12.07;;
55300;SDS011;58302;51.446;-2.000;2023-03-12T02:04:22;40.90;;;11.70;;
55300;SDS011;58302;51.446;-2.000;2023-03-12T02:09:20;56.05;;;14.43;;
55300;SDS011;58302;51.446;-2.000;2023-03-12T02:11:47;57.28;;;12.98;;
55300;SDS011;58302;51.446;-2.000;2023-03-12T02:14:13;58.28;;;14.90;;
55300;SDS011;58302;51.446;-2.000;2023-03-12T02:16:39;52.15;;;13.02;;
55300;SDS011;58302;51.446;-2.000;2023-03-12T02:19:07;49.20;;;14.18;;
55300;SDS011;58302;51.446;-2.000;2023-03-12T02:21:41;45.70;;;13.13;;
55300;SDS011;58302;51.446;-2.000;2023-03-12T02:24:12;55.00;;;14.15;;
55300;SDS011;58302;51.446;-2.000;2023-03-12T02:26:46;51.55;;;16.02;;
55300;SDS011;58302;51.446;-2.000;2023-03-12T02:29:14;57.15;;;13.43;;
55300;SDS011;58302;51.446;-2.000;2023-03-12T02:31:42;62.17;;;15.48;;
55300;SDS011;58302;51.446;-2.000;2023-03-12T02:34:11;52.05;;;16.33;;
55300;SDS011;58302;51.446;-2.000;2023-03-12T02:36:37;56.35;;;15.93;;
55300;SDS011;58302;51.446;-2.000;2023-03-12T02:39:03;57.78;;;13.60;;
55300;SDS011;58302;51.446;-2.000;2023-03-12T02:41:35;50.03;;;14.77;;
55300;SDS011;58302;51.446;-2.000;2023-03-12T02:44:15;56.77;;;16.63;;
55300;SDS011;58302;51.446;-2.000;2023-03-12T02:46:45;72.00;;;15.45;;
55300;SDS011;58302;51.446;-2.000;2023-03-12T02:49:14;45.53;;;12.60;;
55300;SDS011;58302;51.446;-2.000;2023-03-12T02:51:42;46.08;;;11.57;;
55300;SDS011;58302;51.446;-2.000;2023-03-12T02:54:09;52.28;;;13.63;;
55300;SDS011;58302;51.446;-2.000;2023-03-12T02:56:36;52.67;;;15.43;;
55300;SDS011;58302;51.446;-2.000;2023-03-12T02:59:03;40.10;;;10.90;;
55300;SDS011;58302;51.446;-2.000;2023-03-12T03:01:29;49.92;;;12.85;;
55300;SDS011;58302;51.446;-2.000;2023-03-12T03:03:59;38.28;;;12.05;;
55300;SDS011;58302;51.446;-2.000;2023-03-12T03:06:28;52.97;;;15.10;;
55300;SDS011;58302;51.446;-2.000;2023-03-12T03:08:55;40.72;;;12.13;;
55300;SDS011;58302;51.446;-2.000;2023-03-12T03:11:21;52.85;;;14.15;;
55300;SDS011;58302;51.446;-2.000;2023-03-12T03:13:52;53.60;;;13.23;;
55300;SDS011;58302;51.446;-2.000;2023-03-12T03:16:19;49.55;;;13.07;;
55300;SDS011;58302;51.446;-2.000;2023-03-12T03:18:46;41.88;;;14.02;;
55300;SDS011;58302;51.446;-2.000;2023-03-12T03:21:12;63.00;;;15.25;;
55300;SDS011;58302;51.446;-2.000;2023-03-12T03:23:41;52.80;;;11.82;;
55300;SDS011;58302;51.446;-2.000;2023-03-12T03:26:12;46.63;;;12.30;;
55300;SDS011;58302;51.446;-2.000;2023-03-12T03:28:39;45.33;;;11.02;;
55300;SDS011;58302;51.446;-2.000;2023-03-12T03:31:05;40.60;;;11.40;;
55300;SDS011;58302;51.446;-2.000;2023-03-12T03:33:33;40.53;;;9.57;;
55300;SDS011;58302;51.446;-2.000;2023-03-12T03:36:00;59.13;;;12.13;;
55300;SDS011;58302;51.446;-2.000;2023-03-12T03:38:26;40.22;;;11.77;;
55300;SDS011;58302;51.446;-2.000;2023-03-12T03:40:54;36.72;;;10.85;;
55300;SDS011;58302;51.446;-2.000;2023-03-12T03:43:20;48.33;;;13.50;;
55300;SDS011;58302;51.446;-2.000;2023-03-12T03:45:47;47.22;;;11.18;;
55300;SDS011;58302;51.446;-2.000;2023-03-12T03:48:13;51.85;;;12.18;;
55300;SDS011;58302;51.446;-2.000;2023-03-12T03:50:40;43.13;;;10.73;;
55300;SDS011;58302;51.446;-2.000;2023-03-12T03:53:06;52.65;;;12.98;;
55300;SDS011;58302;51.446;-2.000;2023-03-12T03:55:38;40.10;;;10.07;;
55300;SDS011;58302;51.446;-2.000;2023-03-12T03:58:05;48.50;;;10.80;;
55300;SDS011;58302;51.446;-2.000;2023-03-12T04:00:31;45.30;;;10.63;;
55300;SDS011;58302;51.446;-2.000;2023-03-12T04:02:57;47.17;;;11.80;;
55300;SDS011;58302;51.446;-2.000;2023-03-12T04:05:24;37.70;;;10.43;;
55300;SDS011;58302;51.446;-2.000;2023-03-12T04:07:53;51.45;;;11.10;;
55300;SDS011;58302;51.446;-2.000;2023-03-12T04:10:21;47.13;;;10.20;;
55300;SDS011;58302;51.446;-2.000;2023-03-12T04:12:48;39.13;;;10.10;;
55300;SDS011;58302;51.446;-2.000;2023-03-12T04:15:14;37.33;;;9.32;;
55300;SDS011;58302;51.446;-2.000;2023-03-12T04:17:41;53.65;;;14.15;;
55300;SDS011;58302;51.446;-2.000;2023-03-12T04:20:07;36.55;;;10.13;;
55300;SDS011;58302;51.446;-2.000;2023-03-12T04:22:35;47.05;;;10.55;;
55300;SDS011;58302;51.446;-2.000;2023-03-12T04:25:01;48.80;;;12.63;;
55300;SDS011;58302;51.446;-2.000;2023-03-12T04:27:28;45.42;;;11.93;;
55300;SDS011;58302;51.446;-2.000;2023-03-12T04:29:54;45.45;;;12.18;;
55300;SDS011;58302;51.446;-2.000;2023-03-12T04:32:20;46.05;;;9.60;;
55300;SDS011;58302;51.446;-2.000;2023-03-12T04:34:46;47.70;;;10.65;;
55300;SDS011;58302;51.446;-2.000;2023-03-12T04:37:12;39.70;;;12.27;;
55300;SDS011;58302;51.446;-2.000;2023-03-12T04:39:41;42.00;;;11.65;;
55300;SDS011;58302;51.446;-2.000;2023-03-12T04:42:08;39.97;;;11.18;;
55300;SDS011;58302;51.446;-2.000;2023-03-12T04:44:35;38.75;;;10.50;;
55300;SDS011;58302;51.446;-2.000;2023-03-12T04:47:01;33.58;;;8.60;;
55300;SDS011;58302;51.446;-2.000;2023-03-12T04:49:28;35.92;;;7.85;;
55300;SDS011;58302;51.446;-2.000;2023-03-12T04:51:54;35.42;;;9.82;;
55300;SDS011;58302;51.446;-2.000;2023-03-12T04:54:20;45.00;;;12.30;;
55300;SDS011;58302;51.446;-2.000;2023-03-12T04:56:47;36.53;;;10.25;;
55300;SDS011;58302;51.446;-2.000;2023-03-12T04:59:13;32.08;;;12.50;;
55300;SDS011;58302;51.446;-2.000;2023-03-12T05:01:40;35.40;;;9.90;;
55300;SDS011;58302;51.446;-2.000;2023-03-12T05:04:06;35.55;;;10.15;;
55300;SDS011;58302;51.446;-2.000;2023-03-12T05:06:32;32.88;;;8.13;;
55300;SDS011;58302;51.446;-2.000;2023-03-12T05:08:58;28.80;;;6.85;;
55300;SDS011;58302;51.446;-2.000;2023-03-12T05:11:24;36.45;;;10.85;;
55300;SDS011;58302;51.446;-2.000;2023-03-12T05:13:51;42.90;;;10.35;;
55300;SDS011;58302;51.446;-2.000;2023-03-12T05:16:16;59.55;;;9.00;;
55300;SDS011;58302;51.446;-2.000;2023-03-12T05:18:42;37.28;;;10.20;;
55300;SDS011;58302;51.446;-2.000;2023-03-12T05:21:13;35.30;;;9.32;;
55300;SDS011;58302;51.446;-2.000;2023-03-12T05:23:41;33.50;;;10.35;;
55300;SDS011;58302;51.446;-2.000;2023-03-12T05:28:44;43.65;;;9.40;;
55300;SDS011;58302;51.446;-2.000;2023-03-12T05:31:11;45.08;;;11.30;;
55300;SDS011;58302;51.446;-2.000;2023-03-12T05:33:38;39.10;;;10.95;;
55300;SDS011;58302;51.446;-2.000;2023-03-12T05:36:04;28.40;;;7.00;;
55300;SDS011;58302;51.446;-2.000;2023-03-12T05:38:30;39.25;;;9.35;;
55300;SDS011;58302;51.446;-2.000;2023-03-12T05:40:57;35.30;;;7.43;;
55300;SDS011;58302;51.446;-2.000;2023-03-12T05:43:24;31.27;;;7.45;;
55300;SDS011;58302;51.446;-2.000;2023-03-12T05:45:51;31.95;;;7.90;;
55300;SDS011;58302;51.446;-2.000;2023-03-12T05:48:17;31.15;;;11.57;;
55300;SDS011;58302;51.446;-2.000;2023-03-12T05:50:43;40.08;;;9.93;;
55300;SDS011;58302;51.446;-2.000;2023-03-12T05:53:10;35.03;;;9.10;;
55300;SDS011;58302;51.446;-2.000;2023-03-12T05:55:36;27.98;;;7.65;;
55300;SDS011;58302;51.446;-2.000;2023-03-12T05:58:04;30.27;;;7.88;;
55300;SDS011;58302;51.446;-2.000;2023-03-12T06:00:31;30.13;;;8.27;;
55300;SDS011;58302;51.446;-2.000;2023-03-12T06:03:03;36.05;;;8.38;;
55300;SDS011;58302;51.446;-2.000;2023-03-12T06:05:30;39.55;;;9.48;;
55300;SDS011;58302;51.446;-2.000;2023-03-12T06:07:57;39.20;;;8.98;;
55300;SDS011;58302;51.446;-2.000;2023-03-12T06:10:23;45.40;;;11.13;;
55300;SDS011;58302;51.446;-2.000;2023-03-12T06:12:49;38.03;;;9.50;;
55300;SDS011;58302;51.446;-2.000;2023-03-12T06:15:15;31.27;;;7.90;;
55300;SDS011;58302;51.446;-2.000;2023-03-12T06:17:41;31.48;;;7.53;;
55300;SDS011;58302;51.446;-2.000;2023-03-12T06:20:07;26.20;;;8.85;;
55300;SDS011;58302;51.446;-2.000;2023-03-12T06:22:34;32.65;;;7.93;;
55300;SDS011;58302;51.446;-2.000;2023-03-12T06:25:00;28.02;;;7.78;;
55300;SDS011;58302;51.446;-2.000;2023-03-12T06:27:26;33.97;;;9.60;;
55300;SDS011;58302;51.446;-2.000;2023-03-12T06:29:52;32.60;;;8.15;;
55300;SDS011;58302;51.446;-2.000;2023-03-12T06:32:18;32.80;;;7.47;;
55300;SDS011;58302;51.446;-2.000;2023-03-12T06:34:44;35.60;;;9.02;;
55300;SDS011;58302;51.446;-2.000;2023-03-12T06:37:10;43.95;;;9.63;;
55300;SDS011;58302;51.446;-2.000;2023-03-12T06:39:36;27.70;;;9.27;;
55300;SDS011;58302;51.446;-2.000;2023-03-12T06:42:02;27.42;;;9.52;;
55300;SDS011;58302;51.446;-2.000;2023-03-12T06:44:29;31.58;;;8.45;;
55300;SDS011;58302;51.446;-2.000;2023-03-12T06:46:55;31.52;;;7.75;;
55300;SDS011;58302;51.446;-2.000;2023-03-12T06:49:22;31.05;;;8.82;;
55300;SDS011;58302;51.446;-2.000;2023-03-12T06:51:48;25.92;;;7.20;;
55300;SDS011;58302;51.446;-2.000;2023-03-12T06:54:14;37.63;;;7.70;;
55300;SDS011;58302;51.446;-2.000;2023-03-12T06:56:41;28.48;;;7.35;;
55300;SDS011;58302;51.446;-2.000;2023-03-12T06:59:07;26.83;;;8.05;;
55300;SDS011;58302;51.446;-2.000;2023-03-12T07:01:33;35.50;;;11.23;;
55300;SDS011;58302;51.446;-2.000;2023-03-12T07:03:59;24.73;;;6.32;;
55300;SDS011;58302;51.446;-2.000;2023-03-12T07:06:25;27.27;;;6.63;;
55300;SDS011;58302;51.446;-2.000;2023-03-12T07:08:51;21.45;;;7.05;;
55300;SDS011;58302;51.446;-2.000;2023-03-12T07:11:17;26.17;;;6.72;;
55300;SDS011;58302;51.446;-2.000;2023-03-12T07:13:43;20.63;;;7.05;;
55300;SDS011;58302;51.446;-2.000;2023-03-12T07:16:10;22.83;;;6.30;;
55300;SDS011;58302;51.446;-2.000;2023-03-12T07:18:36;34.53;;;7.13;;
55300;SDS011;58302;51.446;-2.000;2023-03-12T07:21:02;24.73;;;5.85;;
55300;SDS011;58302;51.446;-2.000;2023-03-12T07:23:28;24.00;;;6.53;;
55300;SDS011;58302;51.446;-2.000;2023-03-12T07:25:54;29.40;;;6.50;;
55300;SDS011;58302;51.446;-2.000;2023-03-12T07:28:20;20.33;;;7.20;;
55300;SDS011;58302;51.446;-2.000;2023-03-12T07:30:47;14.23;;;5.18;;
55300;SDS011;58302;51.446;-2.000;2023-03-12T07:33:15;20.40;;;5.72;;
55300;SDS011;58302;51.446;-2.000;2023-03-12T07:35:44;23.00;;;5.93;;
55300;SDS011;58302;51.446;-2.000;2023-03-12T07:38:11;23.42;;;5.60;;
55300;SDS011;58302;51.446;-2.000;2023-03-12T07:40:37;19.92;;;7.32;;
55300;SDS011;58302;51.446;-2.000;2023-03-12T07:43:03;27.88;;;8.70;;
55300;SDS011;58302;51.446;-2.000;2023-03-12T07:45:36;15.88;;;5.10;;
55300;SDS011;58302;51.446;-2.000;2023-03-12T07:48:03;13.57;;;4.97;;
55300;SDS011;58302;51.446;-2.000;2023-03-12T07:50:30;29.80;;;7.50;;
55300;SDS011;58302;51.446;-2.000;2023-03-12T07:52:56;27.88;;;5.78;;
55300;SDS011;58302;51.446;-2.000;2023-03-12T07:55:21;22.10;;;5.88;;
55300;SDS011;58302;51.446;-2.000;2023-03-12T07:57:47;20.25;;;7.00;;
55300;SDS011;58302;51.446;-2.000;2023-03-12T08:00:13;25.00;;;6.82;;
55300;SDS011;58302;51.446;-2.000;2023-03-12T08:02:39;19.95;;;5.88;;
55300;SDS011;58302;51.446;-2.000;2023-03-12T08:05:06;29.83;;;6.18;;
55300;SDS011;58302;51.446;-2.000;2023-03-12T08:07:32;20.33;;;5.68;;
55300;SDS011;58302;51.446;-2.000;2023-03-12T08:10:04;18.13;;;5.40;;
55300;SDS011;58302;51.446;-2.000;2023-03-12T08:12:32;23.38;;;9.88;;
55300;SDS011;58302;51.446;-2.000;2023-03-12T08:14:58;21.95;;;7.43;;
55300;SDS011;58302;51.446;-2.000;2023-03-12T08:17:24;23.60;;;5.93;;
55300;SDS011;58302;51.446;-2.000;2023-03-12T08:19:50;19.50;;;6.22;;
55300;SDS011;58302;51.446;-2.000;2023-03-12T08:22:16;29.20;;;6.15;;
55300;SDS011;58302;51.446;-2.000;2023-03-12T08:24:42;20.60;;;6.90;;
55300;SDS011;58302;51.446;-2.000;2023-03-12T08:27:08;29.33;;;6.38;;
55300;SDS011;58302;51.446;-2.000;2023-03-12T08:29:36;20.30;;;5.50;;
55300;SDS011;58302;51.446;-2.000;2023-03-12T08:32:03;19.30;;;6.95;;
55300;SDS011;58302;51.446;-2.000;2023-03-12T08:34:29;25.38;;;7.18;;
55300;SDS011;58302;51.446;-2.000;2023-03-12T08:36:55;22.52;;;8.10;;
55300;SDS011;58302;51.446;-2.000;2023-03-12T08:39:21;30.23;;;8.23;;
55300;SDS011;58302;51.446;-2.000;2023-03-12T08:41:47;23.55;;;7.18;;
55300;SDS011;58302;51.446;-2.000;2023-03-12T08:44:13;27.48;;;7.70;;
55300;SDS011;58302;51.446;-2.000;2023-03-12T08:46:39;30.35;;;7.53;;
55300;SDS011;58302;51.446;-2.000;2023-03-12T08:49:05;27.13;;;7.00;;
55300;SDS011;58302;51.446;-2.000;2023-03-12T08:51:31;26.98;;;6.30;;
55300;SDS011;58302;51.446;-2.000;2023-03-12T08:53:57;29.85;;;7.88;;
55300;SDS011;58302;51.446;-2.000;2023-03-12T08:56:23;29.85;;;8.25;;
55300;SDS011;58302;51.446;-2.000;2023-03-12T08:58:49;28.83;;;6.78;;
55300;SDS011;58302;51.446;-2.000;2023-03-12T09:01:16;30.95;;;7.95;;
55300;SDS011;58302;51.446;-2.000;2023-03-12T09:03:41;16.45;;;6.47;;
55300;SDS011;58302;51.446;-2.000;2023-03-12T09:06:09;29.70;;;7.82;;
55300;SDS011;58302;51.446;-2.000;2023-03-12T09:08:41;36.05;;;8.73;;
55300;SDS011;58302;51.446;-2.000;2023-03-12T09:11:09;28.27;;;7.65;;
55300;SDS011;58302;51.446;-2.000;2023-03-12T09:13:36;24.30;;;7.47;;
55300;SDS011;58302;51.446;-2.000;2023-03-12T09:16:03;29.27;;;6.32;;
55300;SDS011;58302;51.446;-2.000;2023-03-12T09:18:30;22.80;;;7.50;;
55300;SDS011;58302;51.446;-2.000;2023-03-12T09:20:57;23.63;;;6.43;;
55300;SDS011;58302;51.446;-2.000;2023-03-12T09:23:23;20.92;;;7.55;;
55300;SDS011;58302;51.446;-2.000;2023-03-12T09:25:50;18.77;;;6.97;;
55300;SDS011;58302;51.446;-2.000;2023-03-12T09:28:17;23.77;;;6.75;;
55300;SDS011;58302;51.446;-2.000;2023-03-12T09:30:43;20.23;;;5.22;;
55300;SDS011;58302;51.446;-2.000;2023-03-12T09:33:09;28.10;;;7.75;;
55300;SDS011;58302;51.446;-2.000;2023-03-12T09:35:35;22.45;;;6.93;;
55300;SDS011;58302;51.446;-2.000;2023-03-12T09:38:02;27.40;;;8.75;;
55300;SDS011;58302;51.446;-2.000;2023-03-12T09:40:29;27.20;;;6.15;;
55300;SDS011;58302;51.446;-2.000;2023-03-12T09:42:59;23.85;;;6.53;;
55300;SDS011;58302;51.446;-2.000;2023-03-12T09:45:30;24.05;;;7.30;;
55300;SDS011;58302;51.446;-2.000;2023-03-12T09:48:01;24.58;;;6.50;;
55300;SDS011;58302;51.446;-2.000;2023-03-12T09:50:32;25.92;;;6.05;;
55300;SDS011;58302;51.446;-2.000;2023-03-12T09:55:56;11.27;;;4.88;;
55300;SDS011;58302;51.446;-2.000;2023-03-12T09:58:31;23.02;;;6.45;;
55300;SDS011;58302;51.446;-2.000;2023-03-12T10:06:19;17.80;;;5.80;;
55300;SDS011;58302;51.446;-2.000;2023-03-12T10:08:58;25.75;;;7.45;;
55300;SDS011;58302;51.446;-2.000;2023-03-12T10:14:37;17.95;;;4.82;;
55300;SDS011;58302;51.446;-2.000;2023-03-12T10:17:57;20.45;;;5.50;;
55300;SDS011;58302;51.446;-2.000;2023-03-12T10:21:18;17.17;;;6.00;;
55300;SDS011;58302;51.446;-2.000;2023-03-12T10:26:30;14.38;;;4.88;;
55300;SDS011;58302;51.446;-2.000;2023-03-12T10:29:15;21.80;;;6.82;;
55300;SDS011;58302;51.446;-2.000;2023-03-12T10:40:13;18.13;;;4.65;;
55300;SDS011;58302;51.446;-2.000;2023-03-12T10:42:42;19.88;;;6.07;;
55300;SDS011;58302;51.446;-2.000;2023-03-12T10:47:35;14.57;;;4.30;;
55300;SDS011;58302;51.446;-2.000;2023-03-12T10:50:21;16.38;;;4.10;;
55300;SDS011;58302;51.446;-2.000;2023-03-12T10:52:49;14.65;;;4.80;;
55300;SDS011;58302;51.446;-2.000;2023-03-12T10:55:24;19.35;;;3.75;;
55300;SDS011;58302;51.446;-2.000;2023-03-12T10:57:54;14.95;;;4.57;;
55300;SDS011;58302;51.446;-2.000;2023-03-12T11:00:28;11.77;;;4.63;;
55300;SDS011;58302;51.446;-2.000;2023-03-12T11:05:46;15.13;;;4.28;;
55300;SDS011;58302;51.446;-2.000;2023-03-12T11:08:20;12.40;;;4.05;;
55300;SDS011;58302;51.446;-2.000;2023-03-12T11:10:58;17.80;;;5.20;;
55300;SDS011;58302;51.446;-2.000;2023-03-12T11:13:33;15.80;;;5.60;;
55300;SDS011;58302;51.446;-2.000;2023-03-12T11:16:01;13.43;;;4.28;;
55300;SDS011;58302;51.446;-2.000;2023-03-12T11:21:21;18.83;;;5.85;;
55300;SDS011;58302;51.446;-2.000;2023-03-12T11:26:24;18.30;;;5.18;;
55300;SDS011;58302;51.446;-2.000;2023-03-12T11:34:32;10.25;;;4.25;;
55300;SDS011;58302;51.446;-2.000;2023-03-12T11:42:43;18.05;;;5.95;;
55300;SDS011;58302;51.446;-2.000;2023-03-12T11:45:17;16.85;;;4.65;;
55300;SDS011;58302;51.446;-2.000;2023-03-12T11:48:00;11.38;;;4.93;;
55300;SDS011;58302;51.446;-2.000;2023-03-12T11:56:25;21.55;;;5.50;;
55300;SDS011;58302;51.446;-2.000;2023-03-12T12:11:09;19.67;;;5.43;;
55300;SDS011;58302;51.446;-2.000;2023-03-12T12:16:37;16.17;;;4.97;;
55300;SDS011;58302;51.446;-2.000;2023-03-12T12:19:26;17.52;;;4.70;;
55300;SDS011;58302;51.446;-2.000;2023-03-12T12:27:30;21.75;;;5.07;;
55300;SDS011;58302;51.446;-2.000;2023-03-12T12:30:09;15.27;;;4.70;;
55300;SDS011;58302;51.446;-2.000;2023-03-12T12:33:03;13.73;;;3.67;;
55300;SDS011;58302;51.446;-2.000;2023-03-12T12:35:41;15.50;;;3.88;;
55300;SDS011;58302;51.446;-2.000;2023-03-12T12:38:16;11.77;;;4.18;;
55300;SDS011;58302;51.446;-2.000;2023-03-12T12:43:38;18.48;;;4.43;;
55300;SDS011;58302;51.446;-2.000;2023-03-12T12:46:11;11.55;;;3.90;;
55300;SDS011;58302;51.446;-2.000;2023-03-12T12:48:45;8.10;;;3.60;;
55300;SDS011;58302;51.446;-2.000;2023-03-12T12:51:18;15.07;;;4.38;;
55300;SDS011;58302;51.446;-2.000;2023-03-12T12:56:32;11.38;;;2.95;;
55300;SDS011;58302;51.446;-2.000;2023-03-12T13:02:18;15.98;;;5.38;;
55300;SDS011;58302;51.446;-2.000;2023-03-12T13:04:47;11.30;;;3.30;;
55300;SDS011;58302;51.446;-2.000;2023-03-12T13:09:41;13.35;;;3.85;;
55300;SDS011;58302;51.446;-2.000;2023-03-12T13:12:12;16.10;;;4.50;;
55300;SDS011;58302;51.446;-2.000;2023-03-12T13:14:44;16.25;;;4.15;;
55300;SDS011;58302;51.446;-2.000;2023-03-12T13:17:19;9.18;;;2.85;;
55300;SDS011;58302;51.446;-2.000;2023-03-12T13:19:47;11.32;;;4.47;;
55300;SDS011;58302;51.446;-2.000;2023-03-12T13:27:41;8.50;;;3.60;;
55300;SDS011;58302;51.446;-2.000;2023-03-12T13:40:34;12.98;;;3.42;;
55300;SDS011;58302;51.446;-2.000;2023-03-12T13:48:25;10.55;;;3.38;;
55300;SDS011;58302;51.446;-2.000;2023-03-12T13:50:54;16.85;;;3.22;;
55300;SDS011;58302;51.446;-2.000;2023-03-12T13:53:23;10.48;;;3.05;;
55300;SDS011;58302;51.446;-2.000;2023-03-12T13:56:39;8.45;;;2.30;;
55300;SDS011;58302;51.446;-2.000;2023-03-12T13:59:06;10.43;;;2.67;;
55300;SDS011;58302;51.446;-2.000;2023-03-12T14:01:45;9.95;;;3.80;;
55300;SDS011;58302;51.446;-2.000;2023-03-12T14:04:28;8.05;;;2.83;;
55300;SDS011;58302;51.446;-2.000;2023-03-12T14:15:17;14.05;;;3.97;;
55300;SDS011;58302;51.446;-2.000;2023-03-12T14:17:58;11.65;;;3.95;;
55300;SDS011;58302;51.446;-2.000;2023-03-12T14:20:28;8.52;;;3.20;;
55300;SDS011;58302;51.446;-2.000;2023-03-12T14:23:01;11.60;;;3.63;;
55300;SDS011;58302;51.446;-2.000;2023-03-12T14:25:36;10.60;;;3.33;;
55300;SDS011;58302;51.446;-2.000;2023-03-12T14:28:24;12.00;;;2.97;;
55300;SDS011;58302;51.446;-2.000;2023-03-12T14:31:12;7.50;;;2.92;;
55300;SDS011;58302;51.446;-2.000;2023-03-12T14:36:36;3.97;;;2.55;;
55300;SDS011;58302;51.446;-2.000;2023-03-12T14:39:11;7.05;;;4.22;;
55300;SDS011;58302;51.446;-2.000;2023-03-12T14:41:50;5.85;;;2.25;;
55300;SDS011;58302;51.446;-2.000;2023-03-12T14:44:25;5.45;;;2.45;;
55300;SDS011;58302;51.446;-2.000;2023-03-12T14:47:03;4.38;;;2.13;;
55300;SDS011;58302;51.446;-2.000;2023-03-12T14:49:43;5.85;;;2.75;;
55300;SDS011;58302;51.446;-2.000;2023-03-12T14:54:37;14.43;;;3.17;;
55300;SDS011;58302;51.446;-2.000;2023-03-12T14:57:04;5.50;;;2.10;;
55300;SDS011;58302;51.446;-2.000;2023-03-12T14:59:37;7.13;;;1.85;;
55300;SDS011;58302;51.446;-2.000;2023-03-12T15:02:10;4.85;;;1.60;;
55300;SDS011;58302;51.446;-2.000;2023-03-12T15:04:39;2.05;;;1.48;;
55300;SDS011;58302;51.446;-2.000;2023-03-12T15:07:06;5.28;;;2.03;;
55300;SDS011;58302;51.446;-2.000;2023-03-12T15:09:39;5.82;;;1.67;;
55300;SDS011;58302;51.446;-2.000;2023-03-12T15:12:16;6.05;;;1.50;;
55300;SDS011;58302;51.446;-2.000;2023-03-12T15:14:43;5.78;;;1.65;;
55300;SDS011;58302;51.446;-2.000;2023-03-12T15:17:14;2.63;;;1.75;;
55300;SDS011;58302;51.446;-2.000;2023-03-12T15:19:43;5.65;;;1.63;;
55300;SDS011;58302;51.446;-2.000;2023-03-12T15:22:12;5.18;;;1.60;;
55300;SDS011;58302;51.446;-2.000;2023-03-12T15:24:41;6.95;;;2.42;;
55300;SDS011;58302;51.446;-2.000;2023-03-12T15:27:17;5.50;;;1.90;;
55300;SDS011;58302;51.446;-2.000;2023-03-12T15:29:50;2.83;;;1.50;;
55300;SDS011;58302;51.446;-2.000;2023-03-12T15:32:17;5.43;;;2.38;;
55300;SDS011;58302;51.446;-2.000;2023-03-12T15:34:49;5.18;;;2.03;;
55300;SDS011;58302;51.446;-2.000;2023-03-12T15:37:27;10.07;;;2.05;;
55300;SDS011;58302;51.446;-2.000;2023-03-12T15:40:15;3.65;;;1.75;;
55300;SDS011;58302;51.446;-2.000;2023-03-12T15:42:45;4.07;;;2.13;;
55300;SDS011;58302;51.446;-2.000;2023-03-12T15:45:23;1.95;;;1.60;;
55300;SDS011;58302;51.446;-2.000;2023-03-12T15:47:51;3.08;;;2.28;;
55300;SDS011;58302;51.446;-2.000;2023-03-12T15:53:04;5.60;;;2.25;;
55300;SDS011;58302;51.446;-2.000;2023-03-12T15:58:36;3.10;;;1.73;;
55300;SDS011;58302;51.446;-2.000;2023-03-12T16:03:41;4.45;;;2.35;;
55300;SDS011;58302;51.446;-2.000;2023-03-12T16:06:11;7.35;;;2.83;;
55300;SDS011;58302;51.446;-2.000;2023-03-12T16:08:49;8.60;;;3.00;;
55300;SDS011;58302;51.446;-2.000;2023-03-12T16:11:18;4.40;;;2.80;;
55300;SDS011;58302;51.446;-2.000;2023-03-12T16:13:47;8.75;;;3.80;;
55300;SDS011;58302;51.446;-2.000;2023-03-12T16:16:15;8.50;;;3.95;;
55300;SDS011;58302;51.446;-2.000;2023-03-12T16:18:41;8.85;;;3.75;;
55300;SDS011;58302;51.446;-2.000;2023-03-12T16:21:08;8.02;;;3.15;;
55300;SDS011;58302;51.446;-2.000;2023-03-12T16:23:34;5.80;;;3.17;;
55300;SDS011;58302;51.446;-2.000;2023-03-12T16:26:01;6.40;;;3.50;;
55300;SDS011;58302;51.446;-2.000;2023-03-12T16:28:29;9.05;;;3.33;;
55300;SDS011;58302;51.446;-2.000;2023-03-12T16:30:55;4.80;;;2.90;;
55300;SDS011;58302;51.446;-2.000;2023-03-12T16:33:22;4.47;;;2.42;;
55300;SDS011;58302;51.446;-2.000;2023-03-12T16:35:49;6.60;;;2.60;;
55300;SDS011;58302;51.446;-2.000;2023-03-12T16:38:15;6.28;;;2.70;;
55300;SDS011;58302;51.446;-2.000;2023-03-12T16:40:43;9.27;;;3.80;;
55300;SDS011;58302;51.446;-2.000;2023-03-12T16:43:13;5.70;;;4.07;;
55300;SDS011;58302;51.446;-2.000;2023-03-12T16:45:47;7.25;;;3.38;;
55300;SDS011;58302;51.446;-2.000;2023-03-12T16:48:16;8.75;;;4.63;;